sensor_id;sensor_type;location;lat;lon;timestamp;P1;durP1;ratioP1;P2;durP2;ratioP2
40959;SDS011;27842;52.272;8.052;2022-12-18T00:01:18;59.83;;;28.50;;
40959;SDS011;27842;52.272;8.052;2022-12-18T00:03:47;54.70;;;27.63;;
40959;SDS011;27842;52.272;8.052;2022-12-18T00:06:13;51.13;;;26.70;;
40959;SDS011;27842;52.272;8.052;2022-12-18T00:08:40;50.70;;;25.83;;
40959;SDS011;27842;52.272;8.052;2022-12-18T00:11:13;49.85;;;26.65;;
40959;SDS011;27842;52.272;8.052;2022-12-18T00:13:40;52.40;;;25.63;;
40959;SDS011;27842;52.272;8.052;2022-12-18T00:16:07;50.83;;;26.33;;
40959;SDS011;27842;52.272;8.052;2022-12-18T00:18:38;56.40;;;27.20;;
40959;SDS011;27842;52.272;8.052;2022-12-18T00:21:05;56.13;;;28.60;;
40959;SDS011;27842;52.272;8.052;2022-12-18T00:23:35;54.70;;;28.20;;
40959;SDS011;27842;52.272;8.052;2022-12-18T00:26:05;59.15;;;29.23;;
40959;SDS011;27842;52.272;8.052;2022-12-18T00:28:43;53.73;;;28.67;;
40959;SDS011;27842;52.272;8.052;2022-12-18T00:31:14;54.57;;;27.60;;
40959;SDS011;27842;52.272;8.052;2022-12-18T00:33:42;57.83;;;29.73;;
40959;SDS011;27842;52.272;8.052;2022-12-18T00:36:15;65.00;;;31.47;;
40959;SDS011;27842;52.272;8.052;2022-12-18T00:38:43;60.60;;;32.23;;
40959;SDS011;27842;52.272;8.052;2022-12-18T00:41:10;60.77;;;32.67;;
40959;SDS011;27842;52.272;8.052;2022-12-18T00:44:03;53.50;;;28.53;;
40959;SDS011;27842;52.272;8.052;2022-12-18T00:46:30;56.83;;;27.80;;
40959;SDS011;27842;52.272;8.052;2022-12-18T00:48:56;55.40;;;27.37;;
40959;SDS011;27842;52.272;8.052;2022-12-18T00:51:22;48.10;;;25.40;;
40959;SDS011;27842;52.272;8.052;2022-12-18T00:53:48;52.53;;;27.93;;
40959;SDS011;27842;52.272;8.052;2022-12-18T00:56:14;52.60;;;25.60;;
40959;SDS011;27842;52.272;8.052;2022-12-18T00:58:39;57.33;;;27.83;;
40959;SDS011;27842;52.272;8.052;2022-12-18T01:01:05;53.57;;;27.20;;
40959;SDS011;27842;52.272;8.052;2022-12-18T01:03:31;59.23;;;27.13;;
40959;SDS011;27842;52.272;8.052;2022-12-18T01:05:56;53.20;;;25.73;;
40959;SDS011;27842;52.272;8.052;2022-12-18T01:08:22;51.07;;;26.40;;
40959;SDS011;27842;52.272;8.052;2022-12-18T01:10:50;54.17;;;28.27;;
40959;SDS011;27842;52.272;8.052;2022-12-18T01:13:19;53.13;;;26.47;;
40959;SDS011;27842;52.272;8.052;2022-12-18T01:15:50;46.17;;;25.67;;
40959;SDS011;27842;52.272;8.052;2022-12-18T01:18:16;57.63;;;28.07;;
40959;SDS011;27842;52.272;8.052;2022-12-18T01:20:42;51.63;;;26.00;;
40959;SDS011;27842;52.272;8.052;2022-12-18T01:23:08;59.10;;;28.93;;
40959;SDS011;27842;52.272;8.052;2022-12-18T01:25:35;52.93;;;27.33;;
40959;SDS011;27842;52.272;8.052;2022-12-18T01:28:01;48.77;;;25.40;;
40959;SDS011;27842;52.272;8.052;2022-12-18T01:30:27;50.67;;;26.17;;
40959;SDS011;27842;52.272;8.052;2022-12-18T01:32:53;48.50;;;25.20;;
40959;SDS011;27842;52.272;8.052;2022-12-18T01:35:21;48.97;;;25.30;;
40959;SDS011;27842;52.272;8.052;2022-12-18T01:37:47;44.85;;;25.73;;
40959;SDS011;27842;52.272;8.052;2022-12-18T01:40:13;50.43;;;25.37;;
40959;SDS011;27842;52.272;8.052;2022-12-18T01:42:41;53.85;;;24.08;;
40959;SDS011;27842;52.272;8.052;2022-12-18T01:47:45;50.07;;;25.00;;
40959;SDS011;27842;52.272;8.052;2022-12-18T01:50:34;46.63;;;23.67;;
40959;SDS011;27842;52.272;8.052;2022-12-18T01:55:46;47.80;;;23.67;;
40959;SDS011;27842;52.272;8.052;2022-12-18T01:58:16;42.60;;;21.87;;
40959;SDS011;27842;52.272;8.052;2022-12-18T02:00:42;44.43;;;21.83;;
40959;SDS011;27842;52.272;8.052;2022-12-18T02:03:08;43.30;;;22.73;;
40959;SDS011;27842;52.272;8.052;2022-12-18T02:05:44;47.77;;;24.97;;
40959;SDS011;27842;52.272;8.052;2022-12-18T02:13:50;59.37;;;25.80;;
40959;SDS011;27842;52.272;8.052;2022-12-18T02:25:03;40.20;;;20.87;;
40959;SDS011;27842;52.272;8.052;2022-12-18T02:27:49;37.80;;;19.80;;
40959;SDS011;27842;52.272;8.052;2022-12-18T02:30:16;39.70;;;19.77;;
40959;SDS011;27842;52.272;8.052;2022-12-18T02:32:46;40.93;;;20.97;;
40959;SDS011;27842;52.272;8.052;2022-12-18T02:35:24;43.27;;;21.07;;
40959;SDS011;27842;52.272;8.052;2022-12-18T02:37:53;43.27;;;22.17;;
40959;SDS011;27842;52.272;8.052;2022-12-18T02:40:23;48.17;;;23.40;;
40959;SDS011;27842;52.272;8.052;2022-12-18T02:42:51;43.23;;;22.57;;
40959;SDS011;27842;52.272;8.052;2022-12-18T02:45:16;42.13;;;21.67;;
40959;SDS011;27842;52.272;8.052;2022-12-18T02:47:46;38.63;;;19.42;;
40959;SDS011;27842;52.272;8.052;2022-12-18T02:55:51;40.23;;;18.60;;
40959;SDS011;27842;52.272;8.052;2022-12-18T02:58:29;35.27;;;17.90;;
40959;SDS011;27842;52.272;8.052;2022-12-18T03:04:17;40.00;;;18.47;;
40959;SDS011;27842;52.272;8.052;2022-12-18T03:06:53;38.43;;;19.13;;
40959;SDS011;27842;52.272;8.052;2022-12-18T03:09:22;42.63;;;21.37;;
40959;SDS011;27842;52.272;8.052;2022-12-18T03:11:54;49.93;;;22.90;;
40959;SDS011;27842;52.272;8.052;2022-12-18T03:14:41;50.67;;;22.73;;
40959;SDS011;27842;52.272;8.052;2022-12-18T03:17:10;46.80;;;22.08;;
40959;SDS011;27842;52.272;8.052;2022-12-18T03:19:41;42.57;;;21.27;;
40959;SDS011;27842;52.272;8.052;2022-12-18T03:22:12;43.00;;;22.77;;
40959;SDS011;27842;52.272;8.052;2022-12-18T03:24:40;45.27;;;23.33;;
40959;SDS011;27842;52.272;8.052;2022-12-18T03:27:14;46.80;;;21.90;;
40959;SDS011;27842;52.272;8.052;2022-12-18T03:29:48;42.87;;;20.57;;
40959;SDS011;27842;52.272;8.052;2022-12-18T03:32:25;37.90;;;19.03;;
40959;SDS011;27842;52.272;8.052;2022-12-18T03:34:57;39.23;;;19.17;;
40959;SDS011;27842;52.272;8.052;2022-12-18T03:37:27;37.50;;;18.57;;
40959;SDS011;27842;52.272;8.052;2022-12-18T03:39:56;37.15;;;19.10;;
40959;SDS011;27842;52.272;8.052;2022-12-18T03:45:14;38.43;;;19.50;;
40959;SDS011;27842;52.272;8.052;2022-12-18T03:48:18;34.70;;;17.57;;
40959;SDS011;27842;52.272;8.052;2022-12-18T03:51:00;35.93;;;18.90;;
40959;SDS011;27842;52.272;8.052;2022-12-18T03:56:17;37.47;;;17.77;;
40959;SDS011;27842;52.272;8.052;2022-12-18T03:58:45;34.93;;;17.27;;
40959;SDS011;27842;52.272;8.052;2022-12-18T04:01:13;36.80;;;19.63;;
40959;SDS011;27842;52.272;8.052;2022-12-18T04:03:44;32.37;;;17.33;;
40959;SDS011;27842;52.272;8.052;2022-12-18T04:06:12;34.43;;;16.97;;
40959;SDS011;27842;52.272;8.052;2022-12-18T04:08:40;36.00;;;18.00;;
40959;SDS011;27842;52.272;8.052;2022-12-18T04:11:06;35.67;;;17.43;;
40959;SDS011;27842;52.272;8.052;2022-12-18T04:13:33;34.23;;;16.17;;
40959;SDS011;27842;52.272;8.052;2022-12-18T04:16:01;36.40;;;16.52;;
40959;SDS011;27842;52.272;8.052;2022-12-18T04:18:27;38.33;;;16.93;;
40959;SDS011;27842;52.272;8.052;2022-12-18T04:20:55;38.10;;;18.10;;
40959;SDS011;27842;52.272;8.052;2022-12-18T04:23:24;38.37;;;17.20;;
40959;SDS011;27842;52.272;8.052;2022-12-18T04:25:49;33.90;;;17.45;;
40959;SDS011;27842;52.272;8.052;2022-12-18T04:28:18;33.80;;;16.93;;
40959;SDS011;27842;52.272;8.052;2022-12-18T04:30:43;33.57;;;16.67;;
40959;SDS011;27842;52.272;8.052;2022-12-18T04:33:12;38.30;;;18.00;;
40959;SDS011;27842;52.272;8.052;2022-12-18T04:35:41;32.63;;;16.33;;
40959;SDS011;27842;52.272;8.052;2022-12-18T04:38:07;33.80;;;17.30;;
40959;SDS011;27842;52.272;8.052;2022-12-18T04:40:36;25.38;;;12.75;;
40959;SDS011;27842;52.272;8.052;2022-12-18T04:43:02;41.47;;;18.30;;
40959;SDS011;27842;52.272;8.052;2022-12-18T04:45:31;55.45;;;21.45;;
40959;SDS011;27842;52.272;8.052;2022-12-18T04:47:58;53.07;;;19.87;;
40959;SDS011;27842;52.272;8.052;2022-12-18T04:50:24;40.83;;;18.17;;
40959;SDS011;27842;52.272;8.052;2022-12-18T04:52:49;33.57;;;15.53;;
40959;SDS011;27842;52.272;8.052;2022-12-18T04:55:15;33.53;;;15.03;;
40959;SDS011;27842;52.272;8.052;2022-12-18T04:57:41;33.23;;;15.03;;
40959;SDS011;27842;52.272;8.052;2022-12-18T05:00:06;30.27;;;14.53;;
40959;SDS011;27842;52.272;8.052;2022-12-18T05:02:33;33.60;;;14.73;;
40959;SDS011;27842;52.272;8.052;2022-12-18T05:04:58;28.83;;;14.23;;
40959;SDS011;27842;52.272;8.052;2022-12-18T05:07:24;31.47;;;13.90;;
40959;SDS011;27842;52.272;8.052;2022-12-18T05:09:53;31.73;;;14.05;;
40959;SDS011;27842;52.272;8.052;2022-12-18T05:12:18;29.67;;;14.33;;
40959;SDS011;27842;52.272;8.052;2022-12-18T05:14:48;29.83;;;13.00;;
40959;SDS011;27842;52.272;8.052;2022-12-18T05:17:14;28.47;;;14.40;;
40959;SDS011;27842;52.272;8.052;2022-12-18T05:19:40;28.27;;;13.40;;
40959;SDS011;27842;52.272;8.052;2022-12-18T05:22:08;34.03;;;14.10;;
40959;SDS011;27842;52.272;8.052;2022-12-18T05:24:34;28.90;;;14.07;;
40959;SDS011;27842;52.272;8.052;2022-12-18T05:27:05;28.77;;;13.80;;
40959;SDS011;27842;52.272;8.052;2022-12-18T05:29:31;30.93;;;14.77;;
40959;SDS011;27842;52.272;8.052;2022-12-18T05:31:57;29.87;;;15.07;;
40959;SDS011;27842;52.272;8.052;2022-12-18T05:34:22;29.43;;;13.30;;
40959;SDS011;27842;52.272;8.052;2022-12-18T05:36:48;29.47;;;13.47;;
40959;SDS011;27842;52.272;8.052;2022-12-18T05:39:19;30.87;;;14.00;;
40959;SDS011;27842;52.272;8.052;2022-12-18T05:41:44;29.27;;;14.33;;
40959;SDS011;27842;52.272;8.052;2022-12-18T05:44:10;28.47;;;13.47;;
40959;SDS011;27842;52.272;8.052;2022-12-18T05:46:35;29.30;;;13.57;;
40959;SDS011;27842;52.272;8.052;2022-12-18T05:49:04;27.17;;;13.10;;
40959;SDS011;27842;52.272;8.052;2022-12-18T05:51:33;31.20;;;13.25;;
40959;SDS011;27842;52.272;8.052;2022-12-18T05:53:58;28.65;;;13.73;;
40959;SDS011;27842;52.272;8.052;2022-12-18T05:56:24;28.07;;;13.37;;
40959;SDS011;27842;52.272;8.052;2022-12-18T05:58:53;28.03;;;12.83;;
40959;SDS011;27842;52.272;8.052;2022-12-18T06:01:20;29.02;;;12.90;;
40959;SDS011;27842;52.272;8.052;2022-12-18T06:03:50;31.50;;;13.30;;
40959;SDS011;27842;52.272;8.052;2022-12-18T06:06:17;27.33;;;12.53;;
40959;SDS011;27842;52.272;8.052;2022-12-18T06:08:47;26.70;;;12.30;;
40959;SDS011;27842;52.272;8.052;2022-12-18T06:11:15;27.43;;;13.70;;
40959;SDS011;27842;52.272;8.052;2022-12-18T06:13:42;26.67;;;12.20;;
40959;SDS011;27842;52.272;8.052;2022-12-18T06:16:08;28.70;;;13.33;;
40959;SDS011;27842;52.272;8.052;2022-12-18T06:18:34;25.53;;;12.30;;
40959;SDS011;27842;52.272;8.052;2022-12-18T06:21:00;30.00;;;13.27;;
40959;SDS011;27842;52.272;8.052;2022-12-18T06:23:26;32.00;;;13.43;;
40959;SDS011;27842;52.272;8.052;2022-12-18T06:25:51;29.70;;;13.63;;
40959;SDS011;27842;52.272;8.052;2022-12-18T06:28:17;27.23;;;12.80;;
40959;SDS011;27842;52.272;8.052;2022-12-18T06:30:44;27.83;;;12.40;;
40959;SDS011;27842;52.272;8.052;2022-12-18T06:33:13;27.97;;;12.87;;
40959;SDS011;27842;52.272;8.052;2022-12-18T06:35:39;26.93;;;13.30;;
40959;SDS011;27842;52.272;8.052;2022-12-18T06:38:05;32.40;;;13.93;;
40959;SDS011;27842;52.272;8.052;2022-12-18T06:40:30;28.93;;;13.33;;
40959;SDS011;27842;52.272;8.052;2022-12-18T06:42:59;28.83;;;13.93;;
40959;SDS011;27842;52.272;8.052;2022-12-18T06:45:25;29.63;;;12.73;;
40959;SDS011;27842;52.272;8.052;2022-12-18T06:47:50;29.57;;;13.47;;
40959;SDS011;27842;52.272;8.052;2022-12-18T06:50:19;30.03;;;13.13;;
40959;SDS011;27842;52.272;8.052;2022-12-18T06:52:44;30.33;;;13.97;;
40959;SDS011;27842;52.272;8.052;2022-12-18T06:55:12;29.50;;;12.73;;
40959;SDS011;27842;52.272;8.052;2022-12-18T06:57:38;25.93;;;12.23;;
40959;SDS011;27842;52.272;8.052;2022-12-18T07:00:04;28.97;;;13.23;;
40959;SDS011;27842;52.272;8.052;2022-12-18T07:02:31;29.20;;;14.07;;
40959;SDS011;27842;52.272;8.052;2022-12-18T07:05:00;21.27;;;9.80;;
40959;SDS011;27842;52.272;8.052;2022-12-18T07:07:26;28.30;;;13.27;;
40959;SDS011;27842;52.272;8.052;2022-12-18T07:09:52;26.90;;;13.27;;
40959;SDS011;27842;52.272;8.052;2022-12-18T07:12:18;30.93;;;13.57;;
40959;SDS011;27842;52.272;8.052;2022-12-18T07:14:46;28.07;;;13.27;;
40959;SDS011;27842;52.272;8.052;2022-12-18T07:17:12;27.27;;;12.45;;
40959;SDS011;27842;52.272;8.052;2022-12-18T07:19:38;29.70;;;13.63;;
40959;SDS011;27842;52.272;8.052;2022-12-18T07:22:03;28.47;;;13.50;;
40959;SDS011;27842;52.272;8.052;2022-12-18T07:24:32;28.27;;;12.67;;
40959;SDS011;27842;52.272;8.052;2022-12-18T07:27:03;29.00;;;14.10;;
40959;SDS011;27842;52.272;8.052;2022-12-18T07:29:29;28.37;;;12.37;;
40959;SDS011;27842;52.272;8.052;2022-12-18T07:31:55;30.57;;;13.17;;
40959;SDS011;27842;52.272;8.052;2022-12-18T07:34:23;26.23;;;12.50;;
40959;SDS011;27842;52.272;8.052;2022-12-18T07:36:52;26.60;;;12.17;;
40959;SDS011;27842;52.272;8.052;2022-12-18T07:39:18;20.25;;;9.93;;
40959;SDS011;27842;52.272;8.052;2022-12-18T07:41:43;27.77;;;12.17;;
40959;SDS011;27842;52.272;8.052;2022-12-18T07:44:32;29.87;;;13.13;;
40959;SDS011;27842;52.272;8.052;2022-12-18T07:46:58;30.42;;;13.43;;
40959;SDS011;27842;52.272;8.052;2022-12-18T07:49:29;28.63;;;13.53;;
40959;SDS011;27842;52.272;8.052;2022-12-18T07:51:55;30.63;;;13.23;;
40959;SDS011;27842;52.272;8.052;2022-12-18T07:54:24;29.80;;;13.03;;
40959;SDS011;27842;52.272;8.052;2022-12-18T07:56:52;28.20;;;12.45;;
40959;SDS011;27842;52.272;8.052;2022-12-18T07:59:18;27.00;;;12.07;;
40959;SDS011;27842;52.272;8.052;2022-12-18T08:01:46;31.17;;;13.03;;
40959;SDS011;27842;52.272;8.052;2022-12-18T08:04:12;27.80;;;12.73;;
40959;SDS011;27842;52.272;8.052;2022-12-18T08:06:40;30.02;;;13.10;;
40959;SDS011;27842;52.272;8.052;2022-12-18T08:09:06;27.77;;;12.63;;
40959;SDS011;27842;52.272;8.052;2022-12-18T08:11:36;26.70;;;12.13;;
40959;SDS011;27842;52.272;8.052;2022-12-18T08:14:04;26.50;;;12.17;;
40959;SDS011;27842;52.272;8.052;2022-12-18T08:16:30;29.80;;;13.37;;
40959;SDS011;27842;52.272;8.052;2022-12-18T08:18:56;26.87;;;11.77;;
40959;SDS011;27842;52.272;8.052;2022-12-18T08:21:26;26.63;;;11.87;;
40959;SDS011;27842;52.272;8.052;2022-12-18T08:23:53;27.93;;;13.07;;
40959;SDS011;27842;52.272;8.052;2022-12-18T08:26:21;29.13;;;13.47;;
40959;SDS011;27842;52.272;8.052;2022-12-18T08:28:48;26.63;;;12.00;;
40959;SDS011;27842;52.272;8.052;2022-12-18T08:31:14;29.30;;;13.23;;
40959;SDS011;27842;52.272;8.052;2022-12-18T08:33:40;29.40;;;12.73;;
40959;SDS011;27842;52.272;8.052;2022-12-18T08:36:06;30.37;;;12.90;;
40959;SDS011;27842;52.272;8.052;2022-12-18T08:38:33;31.07;;;13.80;;
40959;SDS011;27842;52.272;8.052;2022-12-18T08:41:03;29.73;;;12.83;;
40959;SDS011;27842;52.272;8.052;2022-12-18T08:43:35;29.07;;;13.43;;
40959;SDS011;27842;52.272;8.052;2022-12-18T08:46:19;31.00;;;12.30;;
40959;SDS011;27842;52.272;8.052;2022-12-18T08:48:46;27.33;;;12.27;;
40959;SDS011;27842;52.272;8.052;2022-12-18T08:51:18;25.37;;;12.73;;
40959;SDS011;27842;52.272;8.052;2022-12-18T08:53:44;27.13;;;12.77;;
40959;SDS011;27842;52.272;8.052;2022-12-18T08:56:09;26.83;;;12.43;;
40959;SDS011;27842;52.272;8.052;2022-12-18T08:58:38;28.93;;;13.03;;
40959;SDS011;27842;52.272;8.052;2022-12-18T09:01:10;29.10;;;13.73;;
40959;SDS011;27842;52.272;8.052;2022-12-18T09:03:37;29.27;;;12.57;;
40959;SDS011;27842;52.272;8.052;2022-12-18T09:06:03;27.90;;;13.97;;
40959;SDS011;27842;52.272;8.052;2022-12-18T09:08:33;30.47;;;13.67;;
40959;SDS011;27842;52.272;8.052;2022-12-18T09:11:01;26.13;;;13.07;;
40959;SDS011;27842;52.272;8.052;2022-12-18T09:13:29;29.17;;;13.63;;
40959;SDS011;27842;52.272;8.052;2022-12-18T09:15:55;25.02;;;12.57;;
40959;SDS011;27842;52.272;8.052;2022-12-18T09:18:21;27.20;;;12.53;;
40959;SDS011;27842;52.272;8.052;2022-12-18T09:20:48;28.17;;;13.60;;
40959;SDS011;27842;52.272;8.052;2022-12-18T09:23:16;28.63;;;12.57;;
40959;SDS011;27842;52.272;8.052;2022-12-18T09:25:44;29.43;;;12.63;;
40959;SDS011;27842;52.272;8.052;2022-12-18T09:28:11;27.77;;;13.47;;
40959;SDS011;27842;52.272;8.052;2022-12-18T09:30:42;26.00;;;12.40;;
40959;SDS011;27842;52.272;8.052;2022-12-18T09:33:09;27.63;;;12.27;;
40959;SDS011;27842;52.272;8.052;2022-12-18T09:35:42;27.27;;;12.57;;
40959;SDS011;27842;52.272;8.052;2022-12-18T09:38:16;27.73;;;13.67;;
40959;SDS011;27842;52.272;8.052;2022-12-18T09:40:49;27.80;;;12.70;;
40959;SDS011;27842;52.272;8.052;2022-12-18T09:43:19;30.27;;;13.73;;
40959;SDS011;27842;52.272;8.052;2022-12-18T09:45:51;25.83;;;12.57;;
40959;SDS011;27842;52.272;8.052;2022-12-18T09:48:21;26.83;;;12.65;;
40959;SDS011;27842;52.272;8.052;2022-12-18T09:50:57;29.70;;;13.90;;
40959;SDS011;27842;52.272;8.052;2022-12-18T09:53:49;26.87;;;11.77;;
40959;SDS011;27842;52.272;8.052;2022-12-18T09:56:18;27.07;;;12.80;;
40959;SDS011;27842;52.272;8.052;2022-12-18T09:59:00;26.60;;;12.93;;
40959;SDS011;27842;52.272;8.052;2022-12-18T10:03:53;28.23;;;13.17;;
40959;SDS011;27842;52.272;8.052;2022-12-18T10:09:14;29.10;;;13.30;;
40959;SDS011;27842;52.272;8.052;2022-12-18T10:17:07;31.47;;;15.13;;
40959;SDS011;27842;52.272;8.052;2022-12-18T10:19:52;30.23;;;14.10;;
40959;SDS011;27842;52.272;8.052;2022-12-18T10:22:43;31.43;;;14.50;;
40959;SDS011;27842;52.272;8.052;2022-12-18T10:25:31;31.70;;;15.90;;
40959;SDS011;27842;52.272;8.052;2022-12-18T10:28:00;30.17;;;15.97;;
40959;SDS011;27842;52.272;8.052;2022-12-18T10:30:37;31.67;;;15.87;;
40959;SDS011;27842;52.272;8.052;2022-12-18T10:33:04;31.63;;;16.10;;
40959;SDS011;27842;52.272;8.052;2022-12-18T10:35:30;30.57;;;16.70;;
40959;SDS011;27842;52.272;8.052;2022-12-18T10:38:00;32.10;;;17.07;;
40959;SDS011;27842;52.272;8.052;2022-12-18T10:43:14;32.73;;;16.60;;
40959;SDS011;27842;52.272;8.052;2022-12-18T10:45:41;31.87;;;16.53;;
40959;SDS011;27842;52.272;8.052;2022-12-18T10:48:22;32.70;;;16.90;;
40959;SDS011;27842;52.272;8.052;2022-12-18T10:50:50;28.87;;;16.00;;
40959;SDS011;27842;52.272;8.052;2022-12-18T10:53:20;30.77;;;16.27;;
40959;SDS011;27842;52.272;8.052;2022-12-18T11:00:45;32.60;;;17.27;;
40959;SDS011;27842;52.272;8.052;2022-12-18T11:03:32;34.53;;;16.97;;
40959;SDS011;27842;52.272;8.052;2022-12-18T11:06:04;29.77;;;14.63;;
40959;SDS011;27842;52.272;8.052;2022-12-18T11:08:31;35.15;;;16.63;;
40959;SDS011;27842;52.272;8.052;2022-12-18T11:10:57;30.30;;;15.93;;
40959;SDS011;27842;52.272;8.052;2022-12-18T11:13:24;29.97;;;16.00;;
40959;SDS011;27842;52.272;8.052;2022-12-18T11:15:51;32.30;;;15.50;;
40959;SDS011;27842;52.272;8.052;2022-12-18T11:18:25;33.33;;;16.23;;
40959;SDS011;27842;52.272;8.052;2022-12-18T11:20:55;29.37;;;15.17;;
40959;SDS011;27842;52.272;8.052;2022-12-18T11:23:26;26.30;;;13.37;;
40959;SDS011;27842;52.272;8.052;2022-12-18T11:25:56;30.67;;;15.07;;
40959;SDS011;27842;52.272;8.052;2022-12-18T11:28:28;26.77;;;15.00;;
40959;SDS011;27842;52.272;8.052;2022-12-18T11:31:25;28.40;;;14.20;;
40959;SDS011;27842;52.272;8.052;2022-12-18T11:36:51;31.87;;;15.23;;
40959;SDS011;27842;52.272;8.052;2022-12-18T11:39:35;27.30;;;13.57;;
40959;SDS011;27842;52.272;8.052;2022-12-18T11:42:20;25.77;;;12.40;;
40959;SDS011;27842;52.272;8.052;2022-12-18T11:45:00;28.67;;;13.90;;
40959;SDS011;27842;52.272;8.052;2022-12-18T11:47:51;29.90;;;13.90;;
40959;SDS011;27842;52.272;8.052;2022-12-18T11:53:11;29.13;;;13.57;;
40959;SDS011;27842;52.272;8.052;2022-12-18T12:15:21;23.63;;;12.80;;
40959;SDS011;27842;52.272;8.052;2022-12-18T12:17:57;27.73;;;13.37;;
40959;SDS011;27842;52.272;8.052;2022-12-18T12:25:53;23.03;;;12.47;;
40959;SDS011;27842;52.272;8.052;2022-12-18T12:31:36;23.73;;;11.80;;
40959;SDS011;27842;52.272;8.052;2022-12-18T12:39:39;25.00;;;11.17;;
40959;SDS011;27842;52.272;8.052;2022-12-18T12:42:29;25.87;;;11.50;;
40959;SDS011;27842;52.272;8.052;2022-12-18T12:45:35;22.67;;;10.83;;
40959;SDS011;27842;52.272;8.052;2022-12-18T12:48:35;21.47;;;9.93;;
40959;SDS011;27842;52.272;8.052;2022-12-18T12:51:19;23.30;;;11.17;;
40959;SDS011;27842;52.272;8.052;2022-12-18T12:53:51;25.47;;;11.53;;
40959;SDS011;27842;52.272;8.052;2022-12-18T12:56:19;25.37;;;11.23;;
40959;SDS011;27842;52.272;8.052;2022-12-18T12:58:58;24.80;;;11.07;;
40959;SDS011;27842;52.272;8.052;2022-12-18T13:01:35;23.73;;;9.83;;
40959;SDS011;27842;52.272;8.052;2022-12-18T13:04:19;20.57;;;9.50;;
40959;SDS011;27842;52.272;8.052;2022-12-18T13:20:34;21.50;;;9.18;;
40959;SDS011;27842;52.272;8.052;2022-12-18T13:23:04;20.70;;;8.83;;
40959;SDS011;27842;52.272;8.052;2022-12-18T13:28:16;21.53;;;8.50;;
40959;SDS011;27842;52.272;8.052;2022-12-18T13:36:13;20.97;;;8.57;;
40959;SDS011;27842;52.272;8.052;2022-12-18T13:39:10;19.00;;;8.43;;
40959;SDS011;27842;52.272;8.052;2022-12-18T13:41:41;21.73;;;8.53;;
40959;SDS011;27842;52.272;8.052;2022-12-18T13:46:49;20.60;;;8.17;;
40959;SDS011;27842;52.272;8.052;2022-12-18T13:51:52;18.83;;;7.80;;
40959;SDS011;27842;52.272;8.052;2022-12-18T13:56:48;20.73;;;8.73;;
40959;SDS011;27842;52.272;8.052;2022-12-18T13:59:26;22.43;;;8.47;;
40959;SDS011;27842;52.272;8.052;2022-12-18T14:02:00;19.87;;;8.50;;
40959;SDS011;27842;52.272;8.052;2022-12-18T14:04:33;20.83;;;7.90;;
40959;SDS011;27842;52.272;8.052;2022-12-18T14:07:04;20.23;;;8.63;;
40959;SDS011;27842;52.272;8.052;2022-12-18T14:09:37;21.77;;;8.50;;
40959;SDS011;27842;52.272;8.052;2022-12-18T14:12:11;21.07;;;8.80;;
40959;SDS011;27842;52.272;8.052;2022-12-18T14:15:02;20.60;;;8.60;;
40959;SDS011;27842;52.272;8.052;2022-12-18T14:17:30;20.20;;;9.50;;
40959;SDS011;27842;52.272;8.052;2022-12-18T14:20:01;21.53;;;8.80;;
40959;SDS011;27842;52.272;8.052;2022-12-18T14:22:27;20.07;;;8.30;;
40959;SDS011;27842;52.272;8.052;2022-12-18T14:28:30;22.10;;;9.60;;
40959;SDS011;27842;52.272;8.052;2022-12-18T14:30:42;21.17;;;8.90;;
40959;SDS011;27842;52.272;8.052;2022-12-18T14:33:10;19.10;;;8.77;;
40959;SDS011;27842;52.272;8.052;2022-12-18T14:35:40;19.10;;;7.90;;
40959;SDS011;27842;52.272;8.052;2022-12-18T14:41:01;21.03;;;8.47;;
40959;SDS011;27842;52.272;8.052;2022-12-18T14:43:30;20.53;;;9.07;;
40959;SDS011;27842;52.272;8.052;2022-12-18T14:46:00;19.60;;;8.50;;
40959;SDS011;27842;52.272;8.052;2022-12-18T14:48:40;23.07;;;8.93;;
40959;SDS011;27842;52.272;8.052;2022-12-18T14:56:16;20.57;;;8.47;;
40959;SDS011;27842;52.272;8.052;2022-12-18T14:59:12;19.00;;;7.75;;
40959;SDS011;27842;52.272;8.052;2022-12-18T15:01:45;21.57;;;8.67;;
40959;SDS011;27842;52.272;8.052;2022-12-18T15:04:34;19.23;;;7.37;;
40959;SDS011;27842;52.272;8.052;2022-12-18T15:07:03;22.97;;;9.57;;
40959;SDS011;27842;52.272;8.052;2022-12-18T15:10:00;20.40;;;8.43;;
40959;SDS011;27842;52.272;8.052;2022-12-18T15:12:36;20.83;;;7.53;;
40959;SDS011;27842;52.272;8.052;2022-12-18T15:15:04;20.60;;;7.37;;
40959;SDS011;27842;52.272;8.052;2022-12-18T15:17:56;20.47;;;8.10;;
40959;SDS011;27842;52.272;8.052;2022-12-18T15:20:25;19.53;;;8.27;;
40959;SDS011;27842;52.272;8.052;2022-12-18T15:22:54;19.02;;;7.72;;
40959;SDS011;27842;52.272;8.052;2022-12-18T15:25:24;17.43;;;7.33;;
40959;SDS011;27842;52.272;8.052;2022-12-18T15:28:35;19.60;;;8.20;;
40959;SDS011;27842;52.272;8.052;2022-12-18T15:36:10;19.90;;;7.37;;
40959;SDS011;27842;52.272;8.052;2022-12-18T15:38:37;18.40;;;7.33;;
40959;SDS011;27842;52.272;8.052;2022-12-18T15:41:05;18.03;;;6.90;;
40959;SDS011;27842;52.272;8.052;2022-12-18T15:43:31;18.60;;;7.20;;
40959;SDS011;27842;52.272;8.052;2022-12-18T15:46:09;19.63;;;7.43;;
40959;SDS011;27842;52.272;8.052;2022-12-18T15:48:48;19.13;;;7.23;;
40959;SDS011;27842;52.272;8.052;2022-12-18T15:51:34;17.87;;;7.50;;
40959;SDS011;27842;52.272;8.052;2022-12-18T15:54:02;19.20;;;7.57;;
40959;SDS011;27842;52.272;8.052;2022-12-18T15:56:33;18.57;;;7.23;;
40959;SDS011;27842;52.272;8.052;2022-12-18T15:59:18;20.67;;;8.17;;
40959;SDS011;27842;52.272;8.052;2022-12-18T16:01:48;18.27;;;7.50;;
40959;SDS011;27842;52.272;8.052;2022-12-18T16:04:21;17.50;;;7.03;;
40959;SDS011;27842;52.272;8.052;2022-12-18T16:06:48;17.00;;;6.90;;
40959;SDS011;27842;52.272;8.052;2022-12-18T16:09:14;19.27;;;8.23;;
40959;SDS011;27842;52.272;8.052;2022-12-18T16:11:43;18.10;;;7.70;;
40959;SDS011;27842;52.272;8.052;2022-12-18T16:14:20;20.40;;;8.10;;
40959;SDS011;27842;52.272;8.052;2022-12-18T16:16:59;18.23;;;7.20;;
40959;SDS011;27842;52.272;8.052;2022-12-18T16:19:26;18.80;;;8.13;;
40959;SDS011;27842;52.272;8.052;2022-12-18T16:21:52;18.57;;;7.53;;
40959;SDS011;27842;52.272;8.052;2022-12-18T16:24:32;20.63;;;7.70;;
40959;SDS011;27842;52.272;8.052;2022-12-18T16:27:04;18.53;;;7.47;;
40959;SDS011;27842;52.272;8.052;2022-12-18T16:29:29;22.23;;;7.13;;
40959;SDS011;27842;52.272;8.052;2022-12-18T16:31:59;19.70;;;8.03;;
40959;SDS011;27842;52.272;8.052;2022-12-18T16:36:56;18.83;;;7.80;;
40959;SDS011;27842;52.272;8.052;2022-12-18T16:39:27;20.83;;;7.50;;
40959;SDS011;27842;52.272;8.052;2022-12-18T16:41:55;17.60;;;7.13;;
40959;SDS011;27842;52.272;8.052;2022-12-18T16:44:20;18.67;;;7.37;;
40959;SDS011;27842;52.272;8.052;2022-12-18T16:46:46;19.50;;;7.70;;
40959;SDS011;27842;52.272;8.052;2022-12-18T16:49:13;17.07;;;7.50;;
40959;SDS011;27842;52.272;8.052;2022-12-18T16:51:40;19.37;;;7.67;;
40959;SDS011;27842;52.272;8.052;2022-12-18T16:54:06;19.67;;;7.90;;
40959;SDS011;27842;52.272;8.052;2022-12-18T16:56:33;19.87;;;7.97;;
40959;SDS011;27842;52.272;8.052;2022-12-18T16:58:59;16.77;;;6.47;;
40959;SDS011;27842;52.272;8.052;2022-12-18T17:01:26;19.60;;;7.93;;
40959;SDS011;27842;52.272;8.052;2022-12-18T17:03:56;18.50;;;7.97;;